createdAt,value
2022-11-24T00:01:29.760Z,12.82
2022-11-24T00:04:02.017Z,12.15
2022-11-24T00:06:32.314Z,12.30
2022-11-24T00:09:01.306Z,13.75
2022-11-24T00:11:32.066Z,12.77
2022-11-24T00:14:02.336Z,12.52
2022-11-24T00:16:33.633Z,13.23
2022-11-24T00:19:03.649Z,12.00
2022-11-24T00:21:32.864Z,13.73
2022-11-24T00:24:01.730Z,12.35
2022-11-24T00:26:37.504Z,12.02
2022-11-24T00:29:07.725Z,11.85
2022-11-24T00:31:41.277Z,11.82
2022-11-24T00:34:14.460Z,12.05
2022-11-24T00:36:43.098Z,12.43
2022-11-24T00:39:13.837Z,11.48
2022-11-24T00:44:10.854Z,11.38
2022-11-24T00:46:39.232Z,11.10
2022-11-24T00:49:08.112Z,10.85
2022-11-24T00:51:36.587Z,12.18
2022-11-24T00:54:06.299Z,10.13
2022-11-24T00:56:34.891Z,10.68
2022-11-24T00:59:04.029Z,11.15
2022-11-24T01:01:32.430Z,13.48
2022-11-24T01:04:02.106Z,11.25
2022-11-24T01:06:32.456Z,11.95
2022-11-24T01:09:00.946Z,11.82
2022-11-24T01:11:53.448Z,12.45
2022-11-24T01:14:24.474Z,11.20
2022-11-24T01:16:53.516Z,11.30
2022-11-24T01:19:22.603Z,11.65
2022-11-24T01:21:50.936Z,11.80
2022-11-24T01:24:19.372Z,10.32
2022-11-24T01:26:47.670Z,10.77
2022-11-24T01:29:16.021Z,10.70
2022-11-24T01:31:44.350Z,10.13
2022-11-24T01:34:13.413Z,10.98
2022-11-24T01:36:41.677Z,11.32
2022-11-24T01:39:11.094Z,10.13
2022-11-24T01:41:39.411Z,9.90
2022-11-24T01:44:25.690Z,10.25
2022-11-24T01:47:14.371Z,9.18
2022-11-24T01:49:56.036Z,9.65
2022-11-24T01:52:42.703Z,9.07
2022-11-24T01:55:29.777Z,8.95
2022-11-24T01:58:02.180Z,7.97
2022-11-24T02:00:31.127Z,9.20
2022-11-24T02:02:59.747Z,8.38
2022-11-24T02:05:46.084Z,9.80
2022-11-24T02:08:26.127Z,8.55
2022-11-24T02:10:54.980Z,8.52
2022-11-24T02:13:25.250Z,8.00
2022-11-24T02:15:54.341Z,9.32
2022-11-24T02:18:23.027Z,7.68
2022-11-24T02:20:51.369Z,7.22
2022-11-24T02:23:42.202Z,7.03
2022-11-24T02:28:57.688Z,6.82
2022-11-24T02:31:26.265Z,7.13
2022-11-24T02:33:55.522Z,6.82
2022-11-24T02:36:24.162Z,6.88
2022-11-24T02:38:52.448Z,7.55
2022-11-24T02:41:24.006Z,7.40
2022-11-24T02:43:58.535Z,7.13
2022-11-24T02:46:27.141Z,6.57
2022-11-24T02:48:55.487Z,7.63
2022-11-24T02:51:23.752Z,6.65
2022-11-24T02:53:51.981Z,7.05
2022-11-24T02:56:20.285Z,6.50
2022-11-24T02:58:48.571Z,7.45
2022-11-24T03:01:16.946Z,6.43
2022-11-24T03:03:45.738Z,7.70
2022-11-24T03:06:15.378Z,5.43
2022-11-24T03:08:44.355Z,6.00
2022-11-24T03:11:12.625Z,5.38
2022-11-24T03:13:40.906Z,6.97
2022-11-24T03:16:10.345Z,5.95
2022-11-24T03:18:38.761Z,6.70
2022-11-24T03:21:07.258Z,5.88
2022-11-24T03:23:35.606Z,5.60
2022-11-24T03:26:11.411Z,6.28
2022-11-24T03:28:40.055Z,5.60
2022-11-24T03:31:10.173Z,5.68
2022-11-24T03:33:38.911Z,6.13
2022-11-24T03:36:08.527Z,6.03
2022-11-24T03:38:37.004Z,6.15
2022-11-24T03:41:05.637Z,6.22
2022-11-24T03:43:35.927Z,5.53
2022-11-24T03:46:07.929Z,5.93
2022-11-24T03:48:36.749Z,5.38
2022-11-24T03:51:05.298Z,6.22
2022-11-24T03:53:34.267Z,4.68
2022-11-24T03:56:03.078Z,7.00
2022-11-24T03:58:31.921Z,5.40
2022-11-24T04:01:00.196Z,4.88
2022-11-24T04:03:28.644Z,5.75
2022-11-24T04:05:57.007Z,5.25
2022-11-24T04:08:25.273Z,4.65
2022-11-24T04:10:54.486Z,5.03
2022-11-24T04:13:25.675Z,5.40
2022-11-24T04:15:54.587Z,7.75
2022-11-24T04:18:23.181Z,5.90
2022-11-24T04:20:52.314Z,4.93
2022-11-24T04:23:20.600Z,7.05
2022-11-24T04:25:49.041Z,4.97
2022-11-24T04:28:17.431Z,5.03
2022-11-24T04:30:45.668Z,5.05
2022-11-24T04:33:13.998Z,5.68
2022-11-24T04:35:42.508Z,5.00
2022-11-24T04:38:10.785Z,4.90
2022-11-24T04:40:39.133Z,5.80
2022-11-24T04:43:07.538Z,4.97
2022-11-24T04:45:35.888Z,4.93
2022-11-24T04:48:04.797Z,4.63
2022-11-24T04:50:33.073Z,4.78
2022-11-24T04:53:01.498Z,5.95
2022-11-24T04:55:29.917Z,5.30
2022-11-24T04:57:58.250Z,4.93
2022-11-24T05:00:26.511Z,5.30
2022-11-24T05:02:55.205Z,5.72
2022-11-24T05:05:23.556Z,5.43
2022-11-24T05:07:52.014Z,5.53
2022-11-24T05:10:35.421Z,7.47
2022-11-24T05:13:11.040Z,3.65
2022-11-24T05:15:40.980Z,5.30
2022-11-24T05:18:12.990Z,5.18
2022-11-24T05:20:41.445Z,5.00
2022-11-24T05:23:09.722Z,4.72
2022-11-24T05:25:37.999Z,4.97
2022-11-24T05:28:11.256Z,5.47
2022-11-24T05:30:40.331Z,4.85
2022-11-24T05:33:17.940Z,4.45
2022-11-24T05:35:49.035Z,4.18
2022-11-24T05:38:18.146Z,4.63
2022-11-24T05:40:46.518Z,5.57
2022-11-24T05:43:16.792Z,5.45
2022-11-24T05:45:45.440Z,4.30
2022-11-24T05:48:16.184Z,4.63
2022-11-24T05:53:14.050Z,3.75
2022-11-24T05:55:43.164Z,4.13
2022-11-24T05:58:11.733Z,3.47
2022-11-24T06:00:40.169Z,4.47
2022-11-24T06:03:10.531Z,5.53
2022-11-24T06:05:38.951Z,3.63
2022-11-24T06:08:07.236Z,4.75
2022-11-24T06:10:36.026Z,4.07
2022-11-24T06:13:06.693Z,4.55
2022-11-24T06:18:05.332Z,4.10
2022-11-24T06:20:33.704Z,3.63
2022-11-24T06:23:02.376Z,4.00
2022-11-24T06:25:31.259Z,4.47
2022-11-24T06:28:03.678Z,4.05
2022-11-24T06:30:32.179Z,3.63
2022-11-24T06:33:00.825Z,4.30
2022-11-24T06:35:29.090Z,4.22
2022-11-24T06:37:57.371Z,3.85
2022-11-24T06:40:25.797Z,4.53
2022-11-24T06:42:54.085Z,4.70
2022-11-24T06:45:23.401Z,4.30
2022-11-24T06:47:56.046Z,4.00
2022-11-24T06:50:27.985Z,3.92
2022-11-24T06:52:59.431Z,5.00
2022-11-24T06:55:28.033Z,3.85
2022-11-24T06:57:56.278Z,4.10
2022-11-24T07:00:24.641Z,3.45
2022-11-24T07:02:53.078Z,4.50
2022-11-24T07:05:21.348Z,3.92
2022-11-24T07:07:51.077Z,3.83
2022-11-24T07:10:19.584Z,4.47
2022-11-24T07:12:47.868Z,4.18
2022-11-24T07:15:16.255Z,4.18
2022-11-24T07:17:44.530Z,3.50
2022-11-24T07:20:12.842Z,5.15
2022-11-24T07:22:42.161Z,4.10
2022-11-24T07:25:10.864Z,3.17
2022-11-24T07:27:39.139Z,3.97
2022-11-24T07:30:08.618Z,4.03
2022-11-24T07:32:37.030Z,3.63
2022-11-24T07:35:05.863Z,3.95
2022-11-24T07:37:34.148Z,5.78
2022-11-24T07:40:02.494Z,4.32
2022-11-24T07:42:30.854Z,4.07
2022-11-24T07:44:59.239Z,3.85
2022-11-24T07:47:29.303Z,4.28
2022-11-24T07:49:57.569Z,4.78
2022-11-24T07:52:26.715Z,5.53
2022-11-24T07:54:55.067Z,4.40
2022-11-24T07:57:23.607Z,4.53
2022-11-24T07:59:52.387Z,4.32
2022-11-24T08:02:20.751Z,4.35
2022-11-24T08:04:49.459Z,3.90
2022-11-24T08:07:17.944Z,3.45
2022-11-24T08:09:50.707Z,4.82
2022-11-24T08:12:22.526Z,4.80
2022-11-24T08:14:51.464Z,4.75
2022-11-24T08:17:20.070Z,4.43
2022-11-24T08:19:48.459Z,5.13
2022-11-24T08:22:16.953Z,4.85
2022-11-24T08:24:48.184Z,5.85
2022-11-24T08:27:16.872Z,5.30
2022-11-24T08:29:45.461Z,5.57
2022-11-24T08:32:18.850Z,3.80
2022-11-24T08:34:50.271Z,5.13
2022-11-24T08:37:19.033Z,5.38
2022-11-24T08:39:47.302Z,4.47
2022-11-24T08:42:15.846Z,4.85
2022-11-24T08:44:44.183Z,4.10
2022-11-24T08:47:13.348Z,5.07
2022-11-24T08:49:41.692Z,4.65
2022-11-24T08:52:09.926Z,4.85
2022-11-24T08:54:38.178Z,4.65
2022-11-24T08:57:07.472Z,5.18
2022-11-24T08:59:36.040Z,5.15
2022-11-24T09:02:04.406Z,5.30
2022-11-24T09:04:33.160Z,5.40
2022-11-24T09:07:01.765Z,4.57
2022-11-24T09:09:30.392Z,4.68
2022-11-24T09:11:58.631Z,5.45
2022-11-24T09:14:26.937Z,4.78
2022-11-24T09:16:55.272Z,4.97
2022-11-24T09:19:23.675Z,5.72
2022-11-24T09:21:51.974Z,4.82
2022-11-24T09:24:20.247Z,4.93
2022-11-24T09:26:48.541Z,6.05
2022-11-24T09:29:17.343Z,5.50
2022-11-24T09:31:45.597Z,5.40
2022-11-24T09:34:15.658Z,5.97
2022-11-24T09:36:44.130Z,5.47
2022-11-24T09:39:12.508Z,6.35
2022-11-24T09:42:04.394Z,6.22
2022-11-24T09:44:41.450Z,6.00
2022-11-24T09:47:43.889Z,5.60
2022-11-24T09:50:20.614Z,5.13
2022-11-24T09:53:03.605Z,4.97
2022-11-24T09:55:38.263Z,4.88
2022-11-24T09:58:14.259Z,4.70
2022-11-24T10:00:42.830Z,6.05
2022-11-24T10:03:20.960Z,6.28
2022-11-24T10:05:51.215Z,5.28
2022-11-24T10:08:40.914Z,3.72
2022-11-24T10:11:14.782Z,5.32
2022-11-24T10:14:00.575Z,5.30
2022-11-24T10:16:44.892Z,4.05
2022-11-24T10:19:34.512Z,4.45
2022-11-24T10:22:30.262Z,4.28
2022-11-24T10:25:33.654Z,4.47
2022-11-24T10:28:04.721Z,4.25
2022-11-24T10:30:33.152Z,3.60
2022-11-24T10:33:08.217Z,3.80
2022-11-24T10:35:58.714Z,3.65
2022-11-24T10:38:32.320Z,3.10
2022-11-24T10:41:11.091Z,3.22
2022-11-24T10:43:42.423Z,3.35
2022-11-24T10:46:15.790Z,3.25
2022-11-24T10:48:51.527Z,3.65
2022-11-24T10:51:50.407Z,2.95
2022-11-24T10:54:23.785Z,2.88
2022-11-24T10:56:53.922Z,3.15
2022-11-24T10:59:25.093Z,2.80
2022-11-24T11:01:53.665Z,2.72
2022-11-24T11:04:28.890Z,2.47
2022-11-24T11:07:36.321Z,2.50
2022-11-24T11:10:22.039Z,2.30
2022-11-24T11:12:50.509Z,2.33
2022-11-24T11:15:29.115Z,2.20
2022-11-24T11:18:00.375Z,2.55
2022-11-24T11:20:32.924Z,2.50
2022-11-24T11:23:14.161Z,1.80
2022-11-24T11:25:43.657Z,2.22
2022-11-24T11:28:22.225Z,2.67
2022-11-24T11:31:18.053Z,2.53
2022-11-24T11:34:22.131Z,2.25
2022-11-24T11:36:56.309Z,3.05
2022-11-24T11:39:34.961Z,3.08
2022-11-24T11:42:25.723Z,2.00
2022-11-24T11:45:10.772Z,2.50
2022-11-24T11:47:54.305Z,2.80
2022-11-24T11:50:30.530Z,2.65
2022-11-24T11:53:17.927Z,2.38
2022-11-24T11:55:58.225Z,1.90
2022-11-24T11:58:54.834Z,2.33
2022-11-24T12:01:52.434Z,2.45
2022-11-24T12:05:15.303Z,2.00
2022-11-24T12:07:55.482Z,2.25
2022-11-24T12:10:41.276Z,1.50
2022-11-24T12:13:28.770Z,2.10
2022-11-24T12:16:03.065Z,1.83
2022-11-24T12:19:09.943Z,2.08
2022-11-24T12:22:05.816Z,2.10
2022-11-24T12:24:45.261Z,2.03
2022-11-24T12:27:26.922Z,2.35
2022-11-24T12:30:05.235Z,2.45
2022-11-24T12:33:00.506Z,2.13
2022-11-24T12:35:52.332Z,1.92
2022-11-24T12:38:59.816Z,1.80
2022-11-24T12:42:03.874Z,2.03
2022-11-24T12:44:55.721Z,2.70
2022-11-24T12:48:00.854Z,2.75
2022-11-24T12:50:31.038Z,2.63
2022-11-24T12:53:24.488Z,2.72
2022-11-24T12:55:54.684Z,2.72
2022-11-24T12:58:26.064Z,2.70
2022-11-24T13:01:40.736Z,2.38
2022-11-24T13:04:12.146Z,2.42
2022-11-24T13:06:59.989Z,2.88
2022-11-24T13:09:28.209Z,2.55
2022-11-24T13:12:12.244Z,2.38
2022-11-24T13:14:45.189Z,2.92
2022-11-24T13:17:50.232Z,2.10
2022-11-24T13:20:38.837Z,3.47
2022-11-24T13:23:24.339Z,3.28
2022-11-24T13:26:29.599Z,2.20
2022-11-24T13:29:17.911Z,2.60
2022-11-24T13:31:53.317Z,2.47
2022-11-24T13:34:40.181Z,2.88
2022-11-24T13:37:40.392Z,2.55
2022-11-24T13:40:11.626Z,2.85
2022-11-24T13:42:57.229Z,2.83
2022-11-24T13:45:41.689Z,3.05
2022-11-24T13:48:19.502Z,3.20
2022-11-24T13:50:52.917Z,2.40
2022-11-24T13:53:38.458Z,2.42
2022-11-24T13:56:12.933Z,2.63
2022-11-24T13:58:58.667Z,2.38
2022-11-24T14:01:36.162Z,2.50
2022-11-24T14:04:30.469Z,3.47
2022-11-24T14:07:08.214Z,3.03
2022-11-24T14:09:46.806Z,3.03
2022-11-24T14:12:23.167Z,2.35
2022-11-24T14:14:55.734Z,3.15
2022-11-24T14:17:27.942Z,2.72
2022-11-24T14:19:57.720Z,3.35
2022-11-24T14:22:41.393Z,3.22
2022-11-24T14:25:28.217Z,2.30
2022-11-24T14:27:57.032Z,2.67
2022-11-24T14:30:26.282Z,4.55
2022-11-24T14:32:56.021Z,3.40
2022-11-24T14:35:28.683Z,2.58
2022-11-24T14:37:57.322Z,3.25
2022-11-24T14:40:44.549Z,3.85
2022-11-24T14:43:19.936Z,3.00
2022-11-24T14:46:02.422Z,4.18
2022-11-24T14:48:36.196Z,4.03
2022-11-24T14:51:08.578Z,3.05
2022-11-24T14:53:40.883Z,3.90
2022-11-24T14:56:09.207Z,3.13
2022-11-24T14:58:42.052Z,3.20
2022-11-24T15:01:36.640Z,3.30
2022-11-24T15:04:38.948Z,3.42
2022-11-24T15:07:24.614Z,3.25
2022-11-24T15:09:58.443Z,2.80
2022-11-24T15:12:28.866Z,3.30
2022-11-24T15:15:07.109Z,3.20
2022-11-24T15:17:35.514Z,2.95
2022-11-24T15:20:11.748Z,2.53
2022-11-24T15:22:43.667Z,3.05
2022-11-24T15:25:25.068Z,3.58
2022-11-24T15:27:53.820Z,3.50
2022-11-24T15:30:22.281Z,3.35
2022-11-24T15:32:55.289Z,5.07
2022-11-24T15:35:26.179Z,3.08
2022-11-24T15:37:54.488Z,2.92
2022-11-24T15:40:22.933Z,3.85
2022-11-24T15:42:55.771Z,3.78
2022-11-24T15:45:26.530Z,2.85
2022-11-24T15:50:22.950Z,3.63
2022-11-24T15:52:51.552Z,4.40
2022-11-24T15:55:22.067Z,3.88
2022-11-24T15:57:50.404Z,3.88
2022-11-24T16:00:24.347Z,4.40
2022-11-24T16:02:52.584Z,3.63
2022-11-24T16:05:20.937Z,4.55
2022-11-24T16:07:49.347Z,3.72
2022-11-24T16:10:31.328Z,4.28
2022-11-24T16:12:59.629Z,4.50
2022-11-24T16:15:27.949Z,4.43
2022-11-24T16:17:56.747Z,4.60
2022-11-24T16:20:25.199Z,7.18
2022-11-24T16:22:54.623Z,7.38
2022-11-24T16:25:23.181Z,5.32
2022-11-24T16:27:51.490Z,7.63
2022-11-24T16:30:19.821Z,6.22
2022-11-24T16:32:49.054Z,6.47
2022-11-24T16:35:17.733Z,7.20
2022-11-24T16:37:46.021Z,5.95
2022-11-24T16:40:14.478Z,6.40
2022-11-24T16:42:42.780Z,5.88
2022-11-24T16:45:13.653Z,7.38
2022-11-24T16:47:42.965Z,8.75
2022-11-24T16:50:12.136Z,6.82
2022-11-24T16:52:40.687Z,6.57
2022-11-24T16:55:10.116Z,7.22
2022-11-24T16:57:38.413Z,6.78
2022-11-24T17:00:07.360Z,6.45
2022-11-24T17:02:35.881Z,7.15
2022-11-24T17:05:04.430Z,6.10
2022-11-24T17:07:33.045Z,6.22
2022-11-24T17:10:01.390Z,6.97
2022-11-24T17:12:29.638Z,8.13
2022-11-24T17:15:30.363Z,7.68
2022-11-24T17:18:16.070Z,7.32
2022-11-24T17:20:36.223Z,7.07
2022-11-24T17:23:04.538Z,8.32
2022-11-24T17:25:33.307Z,9.02
2022-11-24T17:28:01.579Z,8.90
2022-11-24T17:30:29.886Z,9.32
2022-11-24T17:32:58.407Z,10.43
2022-11-24T17:35:26.889Z,10.48
2022-11-24T17:37:57.122Z,10.45
2022-11-24T17:40:29.489Z,10.52
2022-11-24T17:42:59.892Z,10.68
2022-11-24T17:45:29.785Z,10.35
2022-11-24T17:48:03.308Z,11.02
2022-11-24T17:50:31.670Z,11.85
2022-11-24T17:52:59.977Z,11.52
2022-11-24T17:55:28.837Z,10.80
2022-11-24T17:57:57.219Z,11.38
2022-11-24T18:00:25.610Z,10.65
2022-11-24T18:02:54.311Z,10.85
2022-11-24T18:05:22.631Z,10.23
2022-11-24T18:07:51.234Z,10.48
2022-11-24T18:10:20.075Z,11.82
2022-11-24T18:12:48.327Z,12.80
2022-11-24T18:15:16.689Z,15.00
2022-11-24T18:17:44.970Z,13.70
2022-11-24T18:20:13.362Z,14.30
2022-11-24T18:25:30.085Z,15.20
2022-11-24T18:27:58.461Z,14.48
2022-11-24T18:30:26.836Z,16.05
2022-11-24T18:32:55.141Z,19.48
2022-11-24T18:35:23.379Z,20.40
2022-11-24T18:37:51.657Z,22.40
2022-11-24T18:40:19.913Z,23.42
2022-11-24T18:42:48.730Z,21.38
2022-11-24T18:45:17.252Z,16.70
2022-11-24T18:47:45.544Z,14.73
2022-11-24T18:50:14.154Z,14.43
2022-11-24T18:52:42.705Z,13.52
2022-11-24T18:55:11.060Z,13.20
2022-11-24T18:57:39.341Z,12.40
2022-11-24T19:00:08.255Z,12.82
2022-11-24T19:02:36.839Z,11.35
2022-11-24T19:05:05.401Z,12.07
2022-11-24T19:07:33.702Z,12.38
2022-11-24T19:10:02.262Z,11.57
2022-11-24T19:12:30.646Z,12.55
2022-11-24T19:14:59.129Z,11.57
2022-11-24T19:17:27.845Z,12.55
2022-11-24T19:19:57.629Z,11.38
2022-11-24T19:22:25.901Z,10.43
2022-11-24T19:24:54.466Z,9.90
2022-11-24T19:27:22.760Z,10.45
2022-11-24T19:29:51.491Z,10.25
2022-11-24T19:32:19.824Z,9.73
2022-11-24T19:34:48.141Z,9.38
2022-11-24T19:37:16.473Z,9.57
2022-11-24T19:39:44.802Z,9.35
2022-11-24T19:42:13.130Z,8.10
2022-11-24T19:44:41.426Z,9.60
2022-11-24T19:47:09.724Z,9.40
2022-11-24T19:49:38.039Z,8.88
2022-11-24T19:52:06.484Z,8.65
2022-11-24T19:54:35.635Z,9.93
2022-11-24T19:57:04.103Z,8.45
2022-11-24T19:59:32.444Z,9.75
2022-11-24T20:02:02.795Z,9.23
2022-11-24T20:04:33.133Z,8.75
2022-11-24T20:07:01.699Z,10.27
2022-11-24T20:09:30.062Z,9.13
2022-11-24T20:11:58.790Z,7.97
2022-11-24T20:14:27.177Z,7.90
2022-11-24T20:16:55.507Z,7.88
2022-11-24T20:19:23.885Z,8.18
2022-11-24T20:21:52.825Z,8.85
2022-11-24T20:24:24.638Z,7.82
2022-11-24T20:26:56.392Z,8.30
2022-11-24T20:29:25.167Z,7.60
2022-11-24T20:31:55.341Z,7.82
2022-11-24T20:34:24.232Z,7.88
2022-11-24T20:36:53.057Z,7.45
2022-11-24T20:39:25.511Z,7.43
2022-11-24T20:41:55.289Z,5.65
2022-11-24T20:44:26.486Z,5.95
2022-11-24T20:46:56.939Z,6.65
2022-11-24T20:49:26.003Z,6.93
2022-11-24T20:51:55.083Z,5.57
2022-11-24T20:54:23.941Z,5.75
2022-11-24T20:56:52.381Z,5.32
2022-11-24T20:59:23.228Z,5.60
2022-11-24T21:01:55.156Z,5.70
2022-11-24T21:04:26.114Z,4.65
2022-11-24T21:09:23.082Z,5.05
2022-11-24T21:11:51.545Z,5.25
2022-11-24T21:14:19.843Z,4.60
2022-11-24T21:16:48.256Z,5.43
2022-11-24T21:19:21.713Z,6.53
2022-11-24T21:21:50.137Z,5.55
2022-11-24T21:24:21.863Z,5.38
2022-11-24T21:26:52.753Z,5.28
2022-11-24T21:32:16.410Z,5.70
2022-11-24T21:34:44.791Z,4.93
2022-11-24T21:37:13.302Z,5.65
2022-11-24T21:39:44.542Z,6.30
2022-11-24T21:42:13.932Z,6.25
2022-11-24T21:44:42.872Z,6.20
2022-11-24T21:47:11.526Z,5.90
2022-11-24T21:49:39.923Z,5.45
2022-11-24T21:52:08.281Z,5.80
2022-11-24T21:54:36.863Z,6.20
2022-11-24T21:57:05.330Z,6.50
2022-11-24T21:59:33.874Z,6.68
2022-11-24T22:02:02.443Z,6.22
2022-11-24T22:04:31.019Z,6.45
2022-11-24T22:06:59.379Z,5.45
2022-11-24T22:09:27.812Z,5.80
2022-11-24T22:11:56.111Z,5.28
2022-11-24T22:14:26.316Z,5.40
2022-11-24T22:16:54.702Z,5.88
2022-11-24T22:19:25.143Z,5.55
2022-11-24T22:21:53.407Z,5.35
2022-11-24T22:24:27.040Z,4.88
2022-11-24T22:26:57.356Z,6.18
2022-11-24T22:29:25.670Z,5.38
2022-11-24T22:31:54.278Z,4.97
2022-11-24T22:34:25.926Z,5.43
2022-11-24T22:36:54.209Z,4.65
2022-11-24T22:39:22.537Z,5.10
2022-11-24T22:41:51.016Z,5.13
2022-11-24T22:44:19.378Z,5.13
2022-11-24T22:46:47.714Z,4.47
2022-11-24T22:49:17.532Z,5.32
2022-11-24T22:51:45.908Z,5.03
2022-11-24T22:54:14.350Z,5.53
2022-11-24T22:56:42.623Z,5.63
2022-11-24T22:59:11.052Z,5.50
2022-11-24T23:01:39.388Z,4.63
2022-11-24T23:04:07.823Z,4.72
2022-11-24T23:06:36.282Z,4.50
2022-11-24T23:09:07.266Z,5.40
2022-11-24T23:11:38.868Z,5.47
2022-11-24T23:14:12.917Z,5.82
2022-11-24T23:16:41.988Z,4.40
2022-11-24T23:19:10.605Z,5.63
2022-11-24T23:21:39.383Z,5.18
2022-11-24T23:24:08.893Z,4.68
2022-11-24T23:26:39.605Z,5.63
2022-11-24T23:31:39.731Z,4.15
2022-11-24T23:34:09.135Z,4.82
2022-11-24T23:36:37.617Z,4.60
2022-11-24T23:39:08.583Z,4.90
2022-11-24T23:41:37.149Z,5.30
2022-11-24T23:44:05.876Z,4.63
2022-11-24T23:46:34.314Z,4.88
2022-11-24T23:49:02.571Z,4.60
2022-11-24T23:51:33.267Z,4.07
2022-11-24T23:56:33.055Z,4.38
2022-11-24T23:59:03.868Z,4.40
